createdAt,value
2023-01-08T00:00:45.230Z,-2.05
2023-01-08T00:01:45.114Z,-2.06
2023-01-08T00:02:45.172Z,-2.02
2023-01-08T00:03:45.292Z,-2.00
2023-01-08T00:04:45.045Z,-2.02
2023-01-08T00:05:45.058Z,-2.00
2023-01-08T00:06:45.039Z,-1.98
2023-01-08T00:07:45.000Z,-1.99
2023-01-08T00:08:45.008Z,-1.99
2023-01-08T00:09:45.020Z,-1.98
2023-01-08T00:10:44.971Z,-1.98
2023-01-08T00:11:45.595Z,-1.92
2023-01-08T00:12:45.009Z,-1.90
2023-01-08T00:13:44.954Z,-1.90
2023-01-08T00:14:44.936Z,-1.88
2023-01-08T00:15:44.926Z,-1.90
2023-01-08T00:16:45.009Z,-1.90
2023-01-08T00:17:44.915Z,-1.92
2023-01-08T00:18:44.893Z,-1.87
2023-01-08T00:19:44.901Z,-1.84
2023-01-08T00:20:44.867Z,-1.84
2023-01-08T00:21:44.937Z,-1.84
2023-01-08T00:22:44.841Z,-1.82
2023-01-08T00:23:44.833Z,-1.81
2023-01-08T00:24:44.895Z,-1.78
2023-01-08T00:25:44.861Z,-1.75
2023-01-08T00:26:44.851Z,-1.75
2023-01-08T00:27:44.827Z,-1.75
2023-01-08T00:28:44.775Z,-1.77
2023-01-08T00:29:44.851Z,-1.72
2023-01-08T00:30:45.734Z,-1.74
2023-01-08T00:31:44.761Z,-1.72
2023-01-08T00:32:44.768Z,-1.74
2023-01-08T00:33:44.884Z,-1.67
2023-01-08T00:34:44.703Z,-1.67
2023-01-08T00:35:44.724Z,-1.67
2023-01-08T00:36:44.747Z,-1.67
2023-01-08T00:37:44.721Z,-1.67
2023-01-08T00:38:44.706Z,-1.66
2023-01-08T00:39:44.703Z,-1.62
2023-01-08T00:40:44.745Z,-1.60
2023-01-08T00:41:44.632Z,-1.57
2023-01-08T00:42:44.691Z,-1.59
2023-01-08T00:43:44.652Z,-1.62
2023-01-08T00:44:44.608Z,-1.56
2023-01-08T00:45:44.720Z,-1.56
2023-01-08T00:46:44.593Z,-1.54
2023-01-08T00:47:44.732Z,-1.53
2023-01-08T00:48:45.122Z,-1.51
2023-01-08T00:49:44.611Z,-1.48
2023-01-08T00:50:44.532Z,-1.46
2023-01-08T00:51:44.532Z,-1.48
2023-01-08T00:52:44.549Z,-1.46
2023-01-08T00:53:44.506Z,-1.43
2023-01-08T00:54:44.511Z,-1.41
2023-01-08T00:55:44.481Z,-1.41
2023-01-08T00:56:44.504Z,-1.38
2023-01-08T00:57:44.484Z,-1.39
2023-01-08T00:58:44.440Z,-1.39
2023-01-08T00:59:44.446Z,-1.38
2023-01-08T01:00:44.458Z,-1.39
2023-01-08T01:01:44.527Z,-1.35
2023-01-08T01:02:44.409Z,-1.30
2023-01-08T01:03:44.455Z,-1.30
2023-01-08T01:04:44.390Z,-1.30
2023-01-08T01:05:44.443Z,-1.31
2023-01-08T01:06:44.375Z,-1.31
2023-01-08T01:07:44.372Z,-1.31
2023-01-08T01:08:44.448Z,-1.30
2023-01-08T01:09:44.330Z,-1.30
2023-01-08T01:10:44.441Z,-1.28
2023-01-08T01:11:44.360Z,-1.25
2023-01-08T01:12:44.299Z,-1.23
2023-01-08T01:13:44.287Z,-1.18
2023-01-08T01:14:44.279Z,-1.21
2023-01-08T01:15:44.337Z,-1.20
2023-01-08T01:16:44.309Z,-1.18
2023-01-08T01:17:44.244Z,-1.17
2023-01-08T01:18:44.233Z,-1.15
2023-01-08T01:19:44.222Z,-1.13
2023-01-08T01:20:44.261Z,-1.15
2023-01-08T01:21:44.232Z,-1.15
2023-01-08T01:22:44.223Z,-1.15
2023-01-08T01:23:44.202Z,-1.13
2023-01-08T01:24:44.171Z,-1.13
2023-01-08T01:25:45.813Z,-1.12
2023-01-08T01:26:44.169Z,-1.10
2023-01-08T01:27:44.158Z,-1.10
2023-01-08T01:28:44.165Z,-1.05
2023-01-08T01:29:44.137Z,-1.00
2023-01-08T01:30:44.172Z,-0.97
2023-01-08T01:31:44.099Z,-0.97
2023-01-08T01:32:44.208Z,-0.99
2023-01-08T01:33:44.096Z,-0.97
2023-01-08T01:34:44.085Z,-0.94
2023-01-08T01:35:44.103Z,-0.95
2023-01-08T01:36:44.069Z,-0.92
2023-01-08T01:37:44.055Z,-0.95
2023-01-08T01:38:44.008Z,-0.92
2023-01-08T01:39:44.062Z,-0.92
2023-01-08T01:40:43.990Z,-0.92
2023-01-08T01:41:43.977Z,-0.95
2023-01-08T01:42:44.046Z,-0.91
2023-01-08T01:43:43.953Z,-0.92
2023-01-08T01:44:43.977Z,-0.87
2023-01-08T01:45:44.020Z,-0.84
2023-01-08T01:46:44.003Z,-0.86
2023-01-08T01:47:43.911Z,-0.84
2023-01-08T01:48:44.178Z,-0.86
2023-01-08T01:49:43.988Z,-0.86
2023-01-08T01:50:43.904Z,-0.83
2023-01-08T01:51:43.888Z,-0.80
2023-01-08T01:52:44.060Z,-0.78
2023-01-08T01:53:43.856Z,-0.78
2023-01-08T01:54:43.902Z,-0.78
2023-01-08T01:55:43.998Z,-0.78
2023-01-08T01:56:43.825Z,-0.77
2023-01-08T01:57:44.544Z,-0.77
2023-01-08T01:58:43.820Z,-0.73
2023-01-08T01:59:43.925Z,-0.73
2023-01-08T02:00:43.801Z,-0.72
2023-01-08T02:01:43.903Z,-0.70
2023-01-08T02:02:43.816Z,-0.70
2023-01-08T02:03:43.786Z,-0.68
2023-01-08T02:04:43.771Z,-0.63
2023-01-08T02:05:43.736Z,-0.63
2023-01-08T02:06:43.742Z,-0.65
2023-01-08T02:07:43.759Z,-0.63
2023-01-08T02:08:43.697Z,-0.62
2023-01-08T02:09:43.680Z,-0.62
2023-01-08T02:10:43.732Z,-0.57
2023-01-08T02:11:43.676Z,-0.60
2023-01-08T02:12:43.645Z,-0.59
2023-01-08T02:13:43.645Z,-0.60
2023-01-08T02:14:43.625Z,-0.62
2023-01-08T02:15:43.602Z,-0.59
2023-01-08T02:16:43.681Z,-0.62
2023-01-08T02:17:43.593Z,-0.60
2023-01-08T02:18:43.610Z,-0.59
2023-01-08T02:19:43.618Z,-0.59
2023-01-08T02:20:43.601Z,-0.62
2023-01-08T02:21:43.612Z,-0.59
2023-01-08T02:22:43.568Z,-0.57
2023-01-08T02:23:43.616Z,-0.54
2023-01-08T02:24:43.572Z,-0.52
2023-01-08T02:25:43.568Z,-0.52
2023-01-08T02:26:43.505Z,-0.52
2023-01-08T02:27:43.494Z,-0.51
2023-01-08T02:28:43.513Z,-0.52
2023-01-08T02:29:43.492Z,-0.51
2023-01-08T02:30:43.581Z,-0.52
2023-01-08T02:31:43.476Z,-0.51
2023-01-08T02:32:43.445Z,-0.52
2023-01-08T02:33:43.434Z,-0.51
2023-01-08T02:34:43.444Z,-0.50
2023-01-08T02:35:43.444Z,-0.51
2023-01-08T02:36:43.409Z,-0.51
2023-01-08T02:37:43.383Z,-0.48
2023-01-08T02:38:43.394Z,-0.50
2023-01-08T02:39:43.356Z,-0.47
2023-01-08T02:40:43.357Z,-0.50
2023-01-08T02:41:43.369Z,-0.47
2023-01-08T02:42:43.331Z,-0.47
2023-01-08T02:43:43.325Z,-0.45
2023-01-08T02:44:43.294Z,-0.45
2023-01-08T02:45:43.344Z,-0.44
2023-01-08T02:46:43.305Z,-0.42
2023-01-08T02:47:43.272Z,-0.41
2023-01-08T02:48:43.323Z,-0.41
2023-01-08T02:49:43.240Z,-0.42
2023-01-08T02:50:43.231Z,-0.41
2023-01-08T02:51:43.243Z,-0.42
2023-01-08T02:52:43.219Z,-0.44
2023-01-08T02:53:43.204Z,-0.41
2023-01-08T02:54:43.194Z,-0.41
2023-01-08T02:55:43.176Z,-0.39
2023-01-08T02:56:43.194Z,-0.41
2023-01-08T02:57:43.162Z,-0.37
2023-01-08T02:58:43.155Z,-0.37
2023-01-08T02:59:43.152Z,-0.36
2023-01-08T03:00:43.118Z,-0.36
2023-01-08T03:01:43.238Z,-0.36
2023-01-08T03:02:43.135Z,-0.34
2023-01-08T03:03:43.095Z,-0.33
2023-01-08T03:04:43.078Z,-0.33
2023-01-08T03:05:43.090Z,-0.34
2023-01-08T03:06:43.070Z,-0.34
2023-01-08T03:07:43.061Z,-0.36
2023-01-08T03:08:43.063Z,-0.34
2023-01-08T03:09:43.053Z,-0.36
2023-01-08T03:10:43.061Z,-0.37
2023-01-08T03:11:43.064Z,-0.37
2023-01-08T03:12:43.019Z,-0.36
2023-01-08T03:13:43.006Z,-0.30
2023-01-08T03:14:42.991Z,-0.30
2023-01-08T03:15:43.047Z,-0.29
2023-01-08T03:16:43.137Z,-0.30
2023-01-08T03:17:42.956Z,-0.33
2023-01-08T03:18:42.957Z,-0.29
2023-01-08T03:19:42.929Z,-0.29
2023-01-08T03:20:42.902Z,-0.29
2023-01-08T03:21:42.922Z,-0.29
2023-01-08T03:22:42.936Z,-0.27
2023-01-08T03:23:42.890Z,-0.26
2023-01-08T03:24:42.872Z,-0.24
2023-01-08T03:25:42.889Z,-0.27
2023-01-08T03:26:42.853Z,-0.27
2023-01-08T03:27:42.853Z,-0.24
2023-01-08T03:28:42.821Z,-0.24
2023-01-08T03:29:42.922Z,-0.24
2023-01-08T03:30:42.880Z,-0.22
2023-01-08T03:31:42.823Z,-0.22
2023-01-08T03:32:42.809Z,-0.23
2023-01-08T03:33:42.773Z,-0.18
2023-01-08T03:34:42.753Z,-0.16
2023-01-08T03:35:42.740Z,-0.16
2023-01-08T03:36:42.752Z,-0.15
2023-01-08T03:37:42.740Z,-0.18
2023-01-08T03:38:42.723Z,-0.18
2023-01-08T03:39:42.708Z,-0.19
2023-01-08T03:40:42.712Z,-0.19
2023-01-08T03:41:42.736Z,-0.22
2023-01-08T03:42:42.678Z,-0.19
2023-01-08T03:43:42.704Z,-0.19
2023-01-08T03:44:42.663Z,-0.18
2023-01-08T03:45:42.637Z,-0.15
2023-01-08T03:46:42.634Z,-0.15
2023-01-08T03:47:42.620Z,-0.15
2023-01-08T03:48:42.632Z,-0.13
2023-01-08T03:49:42.616Z,-0.12
2023-01-08T03:50:42.594Z,-0.12
2023-01-08T03:51:42.576Z,-0.12
2023-01-08T03:52:42.578Z,-0.12
2023-01-08T03:53:42.557Z,-0.09
2023-01-08T03:54:42.571Z,-0.11
2023-01-08T03:55:42.537Z,-0.12
2023-01-08T03:56:42.510Z,-0.12
2023-01-08T03:57:42.550Z,-0.11
2023-01-08T03:58:42.480Z,-0.09
2023-01-08T03:59:42.493Z,-0.09
2023-01-08T04:00:42.496Z,-0.09
2023-01-08T04:01:42.659Z,-0.11
2023-01-08T04:02:42.577Z,-0.09
2023-01-08T04:03:42.465Z,-0.09
2023-01-08T04:04:42.461Z,-0.06
2023-01-08T04:05:42.447Z,-0.08
2023-01-08T04:06:42.449Z,-0.08
2023-01-08T04:07:42.412Z,-0.11
2023-01-08T04:08:42.380Z,-0.12
2023-01-08T04:09:42.395Z,-0.09
2023-01-08T04:10:42.373Z,-0.08
2023-01-08T04:11:42.345Z,-0.06
2023-01-08T04:12:42.364Z,-0.05
2023-01-08T04:13:42.359Z,-0.06
2023-01-08T04:14:42.386Z,-0.08
2023-01-08T04:15:42.320Z,-0.06
2023-01-08T04:16:42.318Z,-0.08
2023-01-08T04:17:42.322Z,-0.05
2023-01-08T04:18:42.322Z,-0.04
2023-01-08T04:19:42.303Z,-0.05
2023-01-08T04:20:42.249Z,-0.06
2023-01-08T04:21:42.262Z,-0.06
2023-01-08T04:22:42.227Z,-0.06
2023-01-08T04:23:42.244Z,-0.05
2023-01-08T04:24:42.221Z,-0.06
2023-01-08T04:25:42.203Z,-0.06
2023-01-08T04:26:42.181Z,-0.04
2023-01-08T04:27:42.240Z,-0.05
2023-01-08T04:28:42.189Z,-0.04
2023-01-08T04:29:42.210Z,-0.04
2023-01-08T04:30:42.216Z,-0.01
2023-01-08T04:31:42.152Z,0.00
2023-01-08T04:32:42.134Z,0.00
2023-01-08T04:33:42.132Z,-0.05
2023-01-08T04:34:42.095Z,-0.01
2023-01-08T04:35:42.095Z,-0.05
2023-01-08T04:36:42.091Z,-0.04
2023-01-08T04:37:42.085Z,-0.04
2023-01-08T04:38:42.085Z,-0.01
2023-01-08T04:39:42.040Z,-0.01
2023-01-08T04:40:42.027Z,-0.01
2023-01-08T04:41:42.040Z,-0.01
2023-01-08T04:42:42.038Z,0.02
2023-01-08T04:43:42.020Z,0.02
2023-01-08T04:44:41.996Z,0.02
2023-01-08T04:45:41.980Z,0.00
2023-01-08T04:46:41.995Z,0.02
2023-01-08T04:47:41.981Z,0.02
2023-01-08T04:48:41.955Z,0.02
2023-01-08T04:49:41.940Z,0.02
2023-01-08T04:50:41.937Z,0.02
2023-01-08T04:51:41.901Z,0.03
2023-01-08T04:52:41.942Z,0.03
2023-01-08T04:53:41.928Z,0.06
2023-01-08T04:54:41.868Z,0.05
2023-01-08T04:55:41.866Z,0.06
2023-01-08T04:56:41.868Z,0.07
2023-01-08T04:57:41.850Z,0.07
2023-01-08T04:58:41.863Z,0.10
2023-01-08T04:59:41.839Z,0.12
2023-01-08T05:00:41.818Z,0.10
2023-01-08T05:01:41.989Z,0.09
2023-01-08T05:02:42.052Z,0.10
2023-01-08T05:03:41.807Z,0.12
2023-01-08T05:04:41.796Z,0.13
2023-01-08T05:05:41.794Z,0.10
2023-01-08T05:06:41.793Z,0.12
2023-01-08T05:07:41.743Z,0.10
2023-01-08T05:08:41.751Z,0.12
2023-01-08T05:09:41.766Z,0.15
2023-01-08T05:10:41.709Z,0.13
2023-01-08T05:11:41.809Z,0.12
2023-01-08T05:12:41.776Z,0.12
2023-01-08T05:13:41.686Z,0.15
2023-01-08T05:14:41.691Z,0.16
2023-01-08T05:15:41.763Z,0.15
2023-01-08T05:16:41.650Z,0.15
2023-01-08T05:17:41.712Z,0.13
2023-01-08T05:18:41.603Z,0.16
2023-01-08T05:19:41.598Z,0.20
2023-01-08T05:20:41.601Z,0.16
2023-01-08T05:21:42.297Z,0.16
2023-01-08T05:22:41.571Z,0.13
2023-01-08T05:23:41.625Z,0.13
2023-01-08T05:24:41.578Z,0.16
2023-01-08T05:25:41.584Z,0.18
2023-01-08T05:26:41.548Z,0.18
2023-01-08T05:27:41.540Z,0.20
2023-01-08T05:28:41.508Z,0.16
2023-01-08T05:29:41.554Z,0.20
2023-01-08T05:30:41.546Z,0.21
2023-01-08T05:31:41.483Z,0.20
2023-01-08T05:32:41.502Z,0.20
2023-01-08T05:33:41.470Z,0.18
2023-01-08T05:34:41.475Z,0.18
2023-01-08T05:35:41.427Z,0.18
2023-01-08T05:36:41.432Z,0.18
2023-01-08T05:37:41.405Z,0.16
2023-01-08T05:38:41.443Z,0.16
2023-01-08T05:39:41.394Z,0.20
2023-01-08T05:40:41.375Z,0.20
2023-01-08T05:41:41.383Z,0.21
2023-01-08T05:42:41.364Z,0.21
2023-01-08T05:43:41.379Z,0.18
2023-01-08T05:44:41.349Z,0.20
2023-01-08T05:45:41.360Z,0.20
2023-01-08T05:46:41.442Z,0.23
2023-01-08T05:47:41.305Z,0.20
2023-01-08T05:48:41.324Z,0.20
2023-01-08T05:49:41.344Z,0.20
2023-01-08T05:50:41.314Z,0.20
2023-01-08T05:51:41.269Z,0.18
2023-01-08T05:52:41.261Z,0.16
2023-01-08T05:53:41.240Z,0.20
2023-01-08T05:54:41.236Z,0.21
2023-01-08T05:55:41.218Z,0.21
2023-01-08T05:56:41.241Z,0.23
2023-01-08T05:57:41.190Z,0.24
2023-01-08T05:58:41.176Z,0.23
2023-01-08T05:59:41.203Z,0.24
2023-01-08T06:00:41.205Z,0.23
2023-01-08T06:01:41.358Z,0.21
2023-01-08T06:02:41.222Z,0.21
2023-01-08T06:03:41.134Z,0.21
2023-01-08T06:04:41.219Z,0.21
2023-01-08T06:05:41.107Z,0.23
2023-01-08T06:06:41.146Z,0.21
2023-01-08T06:07:41.087Z,0.23
2023-01-08T06:08:41.071Z,0.21
2023-01-08T06:09:41.051Z,0.18
2023-01-08T06:10:41.053Z,0.18
2023-01-08T06:11:41.064Z,0.16
2023-01-08T06:12:41.069Z,0.20
2023-01-08T06:13:41.009Z,0.21
2023-01-08T06:14:41.012Z,0.23
2023-01-08T06:15:41.044Z,0.21
2023-01-08T06:16:41.009Z,0.21
2023-01-08T06:17:40.975Z,0.23
2023-01-08T06:18:40.971Z,0.23
2023-01-08T06:19:40.952Z,0.23
2023-01-08T06:20:41.015Z,0.25
2023-01-08T06:21:40.966Z,0.23
2023-01-08T06:22:40.924Z,0.23
2023-01-08T06:23:40.937Z,0.21
2023-01-08T06:24:40.887Z,0.21
2023-01-08T06:25:40.899Z,0.24
2023-01-08T06:26:40.899Z,0.23
2023-01-08T06:27:40.876Z,0.23
2023-01-08T06:28:40.855Z,0.23
2023-01-08T06:29:40.860Z,0.21
2023-01-08T06:30:40.819Z,0.21
2023-01-08T06:31:40.880Z,0.20
2023-01-08T06:32:40.819Z,0.21
2023-01-08T06:33:40.804Z,0.20
2023-01-08T06:34:40.861Z,0.23
2023-01-08T06:35:40.776Z,0.20
2023-01-08T06:36:40.791Z,0.20
2023-01-08T06:37:40.758Z,0.20
2023-01-08T06:38:40.737Z,0.21
2023-01-08T06:39:40.727Z,0.21
2023-01-08T06:40:40.906Z,0.21
2023-01-08T06:41:40.700Z,0.20
2023-01-08T06:42:40.690Z,0.18
2023-01-08T06:43:40.686Z,0.18
2023-01-08T06:44:40.705Z,0.18
2023-01-08T06:45:40.678Z,0.20
2023-01-08T06:46:40.869Z,0.20
2023-01-08T06:47:40.646Z,0.20
2023-01-08T06:48:40.625Z,0.20
2023-01-08T06:49:40.638Z,0.23
2023-01-08T06:50:40.708Z,0.18
2023-01-08T06:51:40.613Z,0.21
2023-01-08T06:52:40.583Z,0.21
2023-01-08T06:53:40.589Z,0.24
2023-01-08T06:54:40.573Z,0.23
2023-01-08T06:55:40.553Z,0.23
2023-01-08T06:56:53.035Z,0.23
2023-01-08T06:57:40.548Z,0.25
2023-01-08T06:58:40.551Z,0.24
2023-01-08T06:59:40.506Z,0.23
2023-01-08T07:00:40.500Z,0.24
2023-01-08T07:01:40.689Z,0.24
2023-01-08T07:02:40.757Z,0.24
2023-01-08T07:03:40.568Z,0.27
2023-01-08T07:04:40.475Z,0.27
2023-01-08T07:05:40.439Z,0.25
2023-01-08T07:06:40.443Z,0.24
2023-01-08T07:07:40.511Z,0.25
2023-01-08T07:08:40.413Z,0.25
2023-01-08T07:09:40.406Z,0.23
2023-01-08T07:10:40.405Z,0.24
2023-01-08T07:11:40.396Z,0.24
2023-01-08T07:12:40.409Z,0.24
2023-01-08T07:13:40.415Z,0.23
2023-01-08T07:14:40.350Z,0.21
2023-01-08T07:15:40.420Z,0.21
2023-01-08T07:16:40.330Z,0.23
2023-01-08T07:17:40.326Z,0.25
2023-01-08T07:18:40.326Z,0.25
2023-01-08T07:19:40.309Z,0.25
2023-01-08T07:20:40.284Z,0.25
2023-01-08T07:21:40.279Z,0.25
2023-01-08T07:22:40.262Z,0.27
2023-01-08T07:23:40.246Z,0.24
2023-01-08T07:24:40.247Z,0.24
2023-01-08T07:25:40.230Z,0.25
2023-01-08T07:26:40.222Z,0.24
2023-01-08T07:27:40.198Z,0.24
2023-01-08T07:28:40.192Z,0.23
2023-01-08T07:29:40.227Z,0.25
2023-01-08T07:30:40.186Z,0.27
2023-01-08T07:31:40.262Z,0.27
2023-01-08T07:32:40.155Z,0.25
2023-01-08T07:33:40.140Z,0.25
2023-01-08T07:34:40.139Z,0.28
2023-01-08T07:35:40.143Z,0.27
2023-01-08T07:36:40.094Z,0.27
2023-01-08T07:37:40.118Z,0.25
2023-01-08T07:38:40.088Z,0.27
2023-01-08T07:39:40.064Z,0.25
2023-01-08T07:40:40.062Z,0.27
2023-01-08T07:41:40.117Z,0.25
2023-01-08T07:42:40.083Z,0.24
2023-01-08T07:43:40.030Z,0.24
2023-01-08T07:44:40.012Z,0.24
2023-01-08T07:45:40.068Z,0.24
2023-01-08T07:46:40.083Z,0.25
2023-01-08T07:47:39.988Z,0.23
2023-01-08T07:48:39.968Z,0.23
2023-01-08T07:49:40.018Z,0.23
2023-01-08T07:50:41.394Z,0.21
2023-01-08T07:51:39.943Z,0.20
2023-01-08T07:52:39.938Z,0.21
2023-01-08T07:53:39.913Z,0.20
2023-01-08T07:54:39.908Z,0.20
2023-01-08T07:55:39.945Z,0.18
2023-01-08T07:56:39.869Z,0.18
2023-01-08T07:57:39.902Z,0.16
2023-01-08T07:58:39.876Z,0.16
2023-01-08T07:59:40.463Z,0.16
2023-01-08T08:00:39.864Z,0.18
2023-01-08T08:01:39.962Z,0.18
2023-01-08T08:02:40.170Z,0.18
2023-01-08T08:03:39.885Z,0.18
2023-01-08T08:04:39.781Z,0.16
2023-01-08T08:05:39.798Z,0.15
2023-01-08T08:06:39.791Z,0.15
2023-01-08T08:07:39.796Z,0.16
2023-01-08T08:08:41.998Z,0.18
2023-01-08T08:09:39.739Z,0.15
2023-01-08T08:10:39.755Z,0.16
2023-01-08T08:11:39.720Z,0.20
2023-01-08T08:12:39.799Z,0.18
2023-01-08T08:13:39.752Z,0.18
2023-01-08T08:14:39.697Z,0.20
2023-01-08T08:15:39.703Z,0.16
2023-01-08T08:16:39.659Z,0.18
2023-01-08T08:17:39.710Z,0.16
2023-01-08T08:18:39.649Z,0.18
2023-01-08T08:19:39.630Z,0.16
2023-01-08T08:20:39.650Z,0.16
2023-01-08T08:21:39.608Z,0.20
2023-01-08T08:22:39.631Z,0.20
2023-01-08T08:23:39.609Z,0.20
2023-01-08T08:24:39.579Z,0.18
2023-01-08T08:25:39.568Z,0.16
2023-01-08T08:26:39.650Z,0.20
2023-01-08T08:27:39.614Z,0.20
2023-01-08T08:28:39.571Z,0.20
2023-01-08T08:29:39.527Z,0.23
2023-01-08T08:30:42.332Z,0.20
2023-01-08T08:31:39.623Z,0.21
2023-01-08T08:32:39.485Z,0.16
2023-01-08T08:33:39.555Z,0.18
2023-01-08T08:34:39.477Z,0.16
2023-01-08T08:35:39.510Z,0.16
2023-01-08T08:36:39.512Z,0.20
2023-01-08T08:37:39.430Z,0.18
2023-01-08T08:38:39.448Z,0.18
2023-01-08T08:39:39.517Z,0.16
2023-01-08T08:40:39.394Z,0.18
2023-01-08T08:41:39.416Z,0.16
2023-01-08T08:42:39.407Z,0.15
2023-01-08T08:43:39.423Z,0.13
2023-01-08T08:44:41.324Z,0.13
2023-01-08T08:45:39.458Z,0.15
2023-01-08T08:46:39.392Z,0.16
2023-01-08T08:47:39.344Z,0.15
2023-01-08T08:48:39.395Z,0.13
2023-01-08T08:49:39.336Z,0.12
2023-01-08T08:50:39.367Z,0.12
2023-01-08T08:51:39.307Z,0.12
2023-01-08T08:52:39.336Z,0.15
2023-01-08T08:53:39.255Z,0.15
2023-01-08T08:54:39.312Z,0.15
2023-01-08T08:55:39.236Z,0.13
2023-01-08T08:56:39.225Z,0.10
2023-01-08T08:57:39.235Z,0.10
2023-01-08T08:58:39.228Z,0.10
2023-01-08T08:59:39.185Z,0.10
2023-01-08T09:00:39.220Z,0.09
2023-01-08T09:01:39.321Z,0.09
2023-01-08T09:02:39.307Z,0.09
2023-01-08T09:03:39.277Z,0.10
2023-01-08T09:04:39.156Z,0.09
2023-01-08T09:05:39.158Z,0.10
2023-01-08T09:06:39.145Z,0.15
2023-01-08T09:07:39.102Z,0.15
2023-01-08T09:08:39.124Z,0.15
2023-01-08T09:09:39.093Z,0.16
2023-01-08T09:10:39.066Z,0.13
2023-01-08T09:11:39.084Z,0.15
2023-01-08T09:12:39.053Z,0.16
2023-01-08T09:13:39.058Z,0.15
2023-01-08T09:14:39.024Z,0.13
2023-01-08T09:15:39.085Z,0.13
2023-01-08T09:16:39.092Z,0.15
2023-01-08T09:17:38.998Z,0.15
2023-01-08T09:18:38.997Z,0.13
2023-01-08T09:19:39.150Z,0.15
2023-01-08T09:20:38.975Z,0.15
2023-01-08T09:21:38.965Z,0.18
2023-01-08T09:22:39.042Z,0.15
2023-01-08T09:23:38.914Z,0.15
2023-01-08T09:24:39.064Z,0.18
2023-01-08T09:25:38.924Z,0.18
2023-01-08T09:26:38.907Z,0.18
2023-01-08T09:27:38.952Z,0.18
2023-01-08T09:28:38.930Z,0.15
2023-01-08T09:29:38.870Z,0.15
2023-01-08T09:30:38.905Z,0.13
2023-01-08T09:31:38.962Z,0.15
2023-01-08T09:32:38.835Z,0.15
2023-01-08T09:33:38.844Z,0.15
2023-01-08T09:34:38.906Z,0.15
2023-01-08T09:35:38.805Z,0.15
2023-01-08T09:36:38.785Z,0.15
2023-01-08T09:37:38.848Z,0.15
2023-01-08T09:38:38.768Z,0.15
2023-01-08T09:39:38.773Z,0.16
2023-01-08T09:40:38.766Z,0.18
2023-01-08T09:41:38.819Z,0.20
2023-01-08T09:42:38.730Z,0.20
2023-01-08T09:43:38.764Z,0.24
2023-01-08T09:44:38.703Z,0.23
2023-01-08T09:45:38.725Z,0.21
2023-01-08T09:46:38.715Z,0.23
2023-01-08T09:47:38.676Z,0.23
2023-01-08T09:48:38.691Z,0.23
2023-01-08T09:49:38.682Z,0.24
2023-01-08T09:50:38.651Z,0.25
2023-01-08T09:51:38.704Z,0.24
2023-01-08T09:52:38.768Z,0.27
2023-01-08T09:53:38.594Z,0.27
2023-01-08T09:54:38.590Z,0.27
2023-01-08T09:55:38.609Z,0.27
2023-01-08T09:56:38.573Z,0.25
2023-01-08T09:57:38.569Z,0.25
2023-01-08T09:58:38.623Z,0.24
2023-01-08T09:59:38.547Z,0.23
2023-01-08T10:00:38.566Z,0.24
2023-01-08T10:01:38.669Z,0.27
2023-01-08T10:02:38.840Z,0.27
2023-01-08T10:03:38.589Z,0.28
2023-01-08T10:04:38.508Z,0.28
2023-01-08T10:05:38.460Z,0.25
2023-01-08T10:06:38.472Z,0.25
2023-01-08T10:07:38.479Z,0.24
2023-01-08T10:08:38.454Z,0.28
2023-01-08T10:09:39.346Z,0.28
2023-01-08T10:10:38.437Z,0.28
2023-01-08T10:11:38.413Z,0.31
2023-01-08T10:12:38.451Z,0.28
2023-01-08T10:13:38.407Z,0.28
2023-01-08T10:14:38.458Z,0.27
2023-01-08T10:15:38.393Z,0.25
2023-01-08T10:16:38.357Z,0.27
2023-01-08T10:17:38.341Z,0.27
2023-01-08T10:18:38.487Z,0.28
2023-01-08T10:19:38.342Z,0.28
2023-01-08T10:20:38.313Z,0.30
2023-01-08T10:21:38.301Z,0.28
2023-01-08T10:22:38.324Z,0.30
2023-01-08T10:23:38.308Z,0.30
2023-01-08T10:24:38.265Z,0.28
2023-01-08T10:25:44.386Z,0.33
2023-01-08T10:26:38.264Z,0.33
2023-01-08T10:27:40.374Z,0.30
2023-01-08T10:28:38.231Z,0.30
2023-01-08T10:29:38.208Z,0.33
2023-01-08T10:30:38.199Z,0.34
2023-01-08T10:31:38.207Z,0.39
2023-01-08T10:32:38.250Z,0.42
2023-01-08T10:33:38.204Z,0.43
2023-01-08T10:34:38.168Z,0.43
2023-01-08T10:35:38.360Z,0.45
2023-01-08T10:36:38.166Z,0.45
2023-01-08T10:37:38.136Z,0.45
2023-01-08T10:38:38.172Z,0.46
2023-01-08T10:39:38.111Z,0.51
2023-01-08T10:40:38.097Z,0.52
2023-01-08T10:41:38.122Z,0.57
2023-01-08T10:42:38.068Z,0.61
2023-01-08T10:43:38.127Z,0.58
2023-01-08T10:44:39.011Z,0.61
2023-01-08T10:45:38.061Z,0.61
2023-01-08T10:46:38.032Z,0.61
2023-01-08T10:47:38.039Z,0.62
2023-01-08T10:48:38.043Z,0.61
2023-01-08T10:49:38.039Z,0.60
2023-01-08T10:50:38.027Z,0.58
2023-01-08T10:51:37.977Z,0.60
2023-01-08T10:52:38.027Z,0.57
2023-01-08T10:53:38.012Z,0.57
2023-01-08T10:54:38.347Z,0.53
2023-01-08T10:55:37.932Z,0.53
2023-01-08T10:56:37.945Z,0.49
2023-01-08T10:57:37.931Z,0.51
2023-01-08T10:58:37.902Z,0.49
2023-01-08T10:59:37.947Z,0.49
2023-01-08T11:00:38.650Z,0.51
2023-01-08T11:01:38.022Z,0.51
2023-01-08T11:02:39.464Z,0.52
2023-01-08T11:03:37.838Z,0.53
2023-01-08T11:04:37.833Z,0.57
2023-01-08T11:05:37.885Z,0.57
2023-01-08T11:06:37.833Z,0.53
2023-01-08T11:07:37.809Z,0.51
2023-01-08T11:08:37.810Z,0.51
2023-01-08T11:09:37.815Z,0.53
2023-01-08T11:10:37.790Z,0.53
2023-01-08T11:11:37.771Z,0.57
2023-01-08T11:12:37.752Z,0.52
2023-01-08T11:13:37.791Z,0.52
2023-01-08T11:14:37.726Z,0.51
2023-01-08T11:15:37.751Z,0.52
2023-01-08T11:16:37.716Z,0.52
2023-01-08T11:17:37.709Z,0.52
2023-01-08T11:18:37.700Z,0.49
2023-01-08T11:19:37.664Z,0.49
2023-01-08T11:20:37.700Z,0.51
2023-01-08T11:21:37.653Z,0.51
2023-01-08T11:22:37.646Z,0.51
2023-01-08T11:23:37.632Z,0.53
2023-01-08T11:24:37.773Z,0.52
2023-01-08T11:25:37.602Z,0.53
2023-01-08T11:26:37.615Z,0.51
2023-01-08T11:27:37.614Z,0.52
2023-01-08T11:28:37.737Z,0.53
2023-01-08T11:29:37.600Z,0.53
2023-01-08T11:30:37.567Z,0.57
2023-01-08T11:31:37.577Z,0.57
2023-01-08T11:32:37.562Z,0.61
2023-01-08T11:33:37.517Z,0.58
2023-01-08T11:34:37.516Z,0.53
2023-01-08T11:35:37.523Z,0.57
2023-01-08T11:36:37.499Z,0.53
2023-01-08T11:37:37.509Z,0.57
2023-01-08T11:38:37.451Z,0.53
2023-01-08T11:39:37.479Z,0.51
2023-01-08T11:40:37.447Z,0.52
2023-01-08T11:41:37.485Z,0.52
2023-01-08T11:42:37.420Z,0.52
2023-01-08T11:43:37.446Z,0.53
2023-01-08T11:44:37.399Z,0.53
2023-01-08T11:45:37.458Z,0.53
2023-01-08T11:46:37.375Z,0.52
2023-01-08T11:47:37.369Z,0.51
2023-01-08T11:48:37.379Z,0.53
2023-01-08T11:49:37.345Z,0.49
2023-01-08T11:50:37.396Z,0.52
2023-01-08T11:51:37.400Z,0.52
2023-01-08T11:52:37.337Z,0.53
2023-01-08T11:53:37.288Z,0.52
2023-01-08T11:54:37.313Z,0.52
2023-01-08T11:55:37.308Z,0.52
2023-01-08T11:56:37.266Z,0.52
2023-01-08T11:57:37.239Z,0.52
2023-01-08T11:58:37.375Z,0.53
2023-01-08T11:59:37.244Z,0.53
2023-01-08T12:00:37.238Z,0.53
2023-01-08T12:01:37.335Z,0.57
2023-01-08T12:02:37.203Z,0.60
2023-01-08T12:03:37.303Z,0.53
2023-01-08T12:04:37.212Z,0.53
2023-01-08T12:05:37.169Z,0.51
2023-01-08T12:06:37.208Z,0.51
2023-01-08T12:07:37.143Z,0.51
2023-01-08T12:08:37.132Z,0.51
2023-01-08T12:09:37.130Z,0.49
2023-01-08T12:10:37.111Z,0.49
2023-01-08T12:11:37.092Z,0.53
2023-01-08T12:12:37.096Z,0.53
2023-01-08T12:13:37.077Z,0.53
2023-01-08T12:14:37.620Z,0.57
2023-01-08T12:15:37.074Z,0.58
2023-01-08T12:16:37.080Z,0.58
2023-01-08T12:17:37.053Z,0.60
2023-01-08T12:18:37.954Z,0.58
2023-01-08T12:19:37.023Z,0.57
2023-01-08T12:20:37.032Z,0.60
2023-01-08T12:21:36.985Z,0.60
2023-01-08T12:22:36.981Z,0.58
2023-01-08T12:23:36.952Z,0.58
2023-01-08T12:24:36.975Z,0.57
2023-01-08T12:25:37.107Z,0.53
2023-01-08T12:26:36.929Z,0.57
2023-01-08T12:27:55.969Z,0.53
2023-01-08T12:28:36.924Z,0.52
2023-01-08T12:29:36.906Z,0.52
2023-01-08T12:30:36.921Z,0.49
2023-01-08T12:31:36.915Z,0.49
2023-01-08T12:32:36.880Z,0.49
2023-01-08T12:33:53.180Z,0.52
2023-01-08T12:34:37.028Z,0.52
2023-01-08T12:35:36.836Z,0.51
2023-01-08T12:36:36.838Z,0.51
2023-01-08T12:37:36.832Z,0.52
2023-01-08T12:38:36.796Z,0.52
2023-01-08T12:39:36.787Z,0.52
2023-01-08T12:40:36.775Z,0.52
2023-01-08T12:41:36.805Z,0.49
2023-01-08T12:42:36.783Z,0.51
2023-01-08T12:43:36.859Z,0.51
2023-01-08T12:44:36.807Z,0.52
2023-01-08T12:45:36.900Z,0.52
2023-01-08T12:46:36.726Z,0.52
2023-01-08T12:47:36.715Z,0.52
2023-01-08T12:48:36.766Z,0.52
2023-01-08T12:49:36.685Z,0.53
2023-01-08T12:50:36.669Z,0.52
2023-01-08T12:51:36.659Z,0.51
2023-01-08T12:52:36.723Z,0.52
2023-01-08T12:53:36.651Z,0.53
2023-01-08T12:54:36.656Z,0.53
2023-01-08T12:55:36.684Z,0.53
2023-01-08T12:56:36.614Z,0.53
2023-01-08T12:57:37.474Z,0.57
2023-01-08T12:58:36.564Z,0.58
2023-01-08T12:59:36.571Z,0.58
2023-01-08T13:00:36.566Z,0.58
2023-01-08T13:01:36.825Z,0.60
2023-01-08T13:02:36.767Z,0.62
2023-01-08T13:03:36.524Z,0.61
2023-01-08T13:04:36.535Z,0.61
2023-01-08T13:05:36.579Z,0.58
2023-01-08T13:06:36.524Z,0.57
2023-01-08T13:07:36.475Z,0.57
2023-01-08T13:08:36.473Z,0.52
2023-01-08T13:09:36.454Z,0.52